Terminal Aerodrome Forecast
Issued by NWS St Louis, MO

Home | Current Version | Previous Version | Text Only | Print | Product List | Glossary On
Versions: 1 2 3 4 5 6 7 8 9 10 11 12 13 14 15 16 17 18 19 20 21 22 23 24 25 26 27 28 29 30 31
601
FTUS43 KLSX 221138
TAFSTL
TAF
KSTL 221138Z 2212/2318 17012G16KT P6SM SCT007 BKN090
      TEMPO 2212/2214 BKN007
     FM221500 19015G24KT P6SM SCT120
     FM222000 22016G26KT P6SM SCT040
     FM222200 22015G25KT P6SM VCSH OVC040
     FM230100 22015G25KT P6SM VCSH OVC025
     FM230600 27015G25KT P6SM OVC020
     FM231200 29010G17KT P6SM OVC020=

USA.gov is the U.S. government's official web portal to all federal, state and local government web resources and services.